createdAt,value
2023-05-05T00:02:29.042Z,101431.47
2023-05-05T00:04:58.875Z,101424.57
2023-05-05T00:07:28.687Z,101425.41
2023-05-05T00:09:58.788Z,101430.92
2023-05-05T00:12:28.623Z,101431.06
2023-05-05T00:14:58.974Z,101438.41
2023-05-05T00:17:28.814Z,101439.06
2023-05-05T00:19:59.706Z,101438.95
2023-05-05T00:22:29.745Z,101438.72
2023-05-05T00:24:59.565Z,101432.30
2023-05-05T00:27:29.343Z,101435.47
2023-05-05T00:29:59.233Z,101438.85
2023-05-05T00:32:29.069Z,101427.54
2023-05-05T00:34:58.864Z,101436.02
2023-05-05T00:37:28.666Z,101427.14
2023-05-05T00:39:58.367Z,101429.22
2023-05-05T00:42:28.448Z,101434.63
2023-05-05T00:44:58.620Z,101434.52
2023-05-05T00:47:28.433Z,101440.98
2023-05-05T00:49:58.372Z,101452.80
2023-05-05T00:52:28.344Z,101443.45
2023-05-05T00:54:59.205Z,101443.85
2023-05-05T00:57:29.262Z,101447.74
2023-05-05T01:00:01.284Z,101440.69
2023-05-05T01:02:31.391Z,101451.28
2023-05-05T01:05:02.110Z,101448.73
2023-05-05T01:07:40.914Z,101448.73
2023-05-05T01:10:38.385Z,101451.52
2023-05-05T01:13:20.476Z,101448.69
2023-05-05T01:15:53.512Z,101447.53
2023-05-05T01:18:34.877Z,101455.05
2023-05-05T01:21:16.725Z,101445.49
2023-05-05T01:23:55.505Z,101458.88
2023-05-05T01:26:56.601Z,101458.88
2023-05-05T01:29:44.100Z,101466.71
2023-05-05T01:32:16.174Z,101475.75
2023-05-05T01:34:51.873Z,101470.56
2023-05-05T01:37:24.423Z,101480.33
2023-05-05T01:39:57.288Z,101480.23
2023-05-05T01:42:28.661Z,101481.88
2023-05-05T01:44:59.604Z,101478.28
2023-05-05T01:47:30.865Z,101486.25
2023-05-05T01:50:02.388Z,101484.98
2023-05-05T01:52:34.035Z,101492.21
2023-05-05T01:55:05.558Z,101491.91
2023-05-05T01:57:36.801Z,101497.08
2023-05-05T02:00:09.776Z,101497.50
2023-05-05T02:02:49.815Z,101494.48
2023-05-05T02:05:23.414Z,101494.41
2023-05-05T02:07:56.374Z,101479.77
2023-05-05T02:10:26.220Z,101484.66
2023-05-05T02:12:56.698Z,101478.99
2023-05-05T02:15:28.644Z,101467.58
2023-05-05T02:18:00.311Z,101475.64
2023-05-05T02:20:32.299Z,101475.04
2023-05-05T02:23:02.224Z,101476.04
2023-05-05T02:25:34.818Z,101475.52
2023-05-05T02:28:09.780Z,101484.09
2023-05-05T02:30:41.616Z,101490.08
2023-05-05T02:33:14.310Z,101490.68
2023-05-05T02:35:47.822Z,101490.68
2023-05-05T02:38:18.680Z,101495.05
2023-05-05T02:40:52.056Z,101492.95
2023-05-05T02:43:25.253Z,101485.11
2023-05-05T02:45:55.063Z,101488.77
2023-05-05T02:48:25.147Z,101483.12
2023-05-05T02:50:55.593Z,101482.05
2023-05-05T02:53:28.821Z,101489.14
2023-05-05T02:56:07.159Z,101494.75
2023-05-05T02:58:50.677Z,101495.89
2023-05-05T03:01:29.014Z,101496.03
2023-05-05T03:04:05.811Z,101498.48
2023-05-05T03:06:42.577Z,101495.13
2023-05-05T03:09:15.815Z,101498.48
2023-05-05T03:12:02.040Z,101500.88
2023-05-05T03:14:40.769Z,101499.27
2023-05-05T03:17:13.676Z,101503.33
2023-05-05T03:19:45.055Z,101508.20
2023-05-05T03:22:15.142Z,101486.48
2023-05-05T03:24:51.469Z,101485.22
2023-05-05T03:27:21.989Z,101485.22
2023-05-05T03:29:51.600Z,101505.94
2023-05-05T03:32:24.019Z,101509.02
2023-05-05T03:34:55.586Z,101506.93
2023-05-05T03:37:27.209Z,101506.75
2023-05-05T03:39:57.000Z,101501.81
2023-05-05T03:42:26.984Z,101503.42
2023-05-05T03:44:57.200Z,101517.76
2023-05-05T03:47:27.805Z,101522.42
2023-05-05T03:49:58.420Z,101525.59
2023-05-05T03:52:28.488Z,101533.80
2023-05-05T03:54:59.970Z,101533.80
2023-05-05T03:57:30.059Z,101536.44
2023-05-05T03:59:59.902Z,101543.36
2023-05-05T04:02:30.004Z,101543.81
2023-05-05T04:05:00.292Z,101546.36
2023-05-05T04:07:30.442Z,101548.82
2023-05-05T04:10:00.386Z,101553.52
2023-05-05T04:12:30.380Z,101553.34
2023-05-05T04:15:00.351Z,101554.61
2023-05-05T04:17:30.330Z,101560.64
2023-05-05T04:20:00.653Z,101567.28
2023-05-05T04:22:32.392Z,101563.09
2023-05-05T04:25:02.369Z,101572.98
2023-05-05T04:27:32.632Z,101574.09
2023-05-05T04:30:02.622Z,101569.42
2023-05-05T04:32:32.780Z,101575.34
2023-05-05T04:35:02.574Z,101573.52
2023-05-05T04:37:32.690Z,101587.91
2023-05-05T04:40:02.796Z,101591.20
2023-05-05T04:42:33.890Z,101589.13
2023-05-05T04:45:04.194Z,101590.77
2023-05-05T04:47:38.818Z,101589.34
2023-05-05T04:50:11.501Z,101592.16
2023-05-05T04:52:41.577Z,101598.27
2023-05-05T04:55:11.684Z,101599.02
2023-05-05T04:57:41.505Z,101596.91
2023-05-05T05:00:12.762Z,101595.17
2023-05-05T05:02:42.638Z,101595.13
2023-05-05T05:05:12.448Z,101600.78
2023-05-05T05:07:41.979Z,101602.42
2023-05-05T05:10:13.456Z,101609.69
2023-05-05T05:12:43.296Z,101612.04
2023-05-05T05:15:14.575Z,101615.44
2023-05-05T05:17:44.420Z,101603.95
2023-05-05T05:20:15.394Z,101603.95
2023-05-05T05:22:46.114Z,101616.45
2023-05-05T05:25:17.731Z,101616.34
2023-05-05T05:27:58.535Z,101617.02
2023-05-05T05:30:21.036Z,101616.51
2023-05-05T05:32:50.916Z,101612.58
2023-05-05T05:35:20.860Z,101617.02
2023-05-05T05:37:51.715Z,101617.02
2023-05-05T05:40:21.412Z,101612.27
2023-05-05T05:42:51.270Z,101609.55
2023-05-05T05:45:21.649Z,101601.41
2023-05-05T05:47:51.946Z,101600.64
2023-05-05T05:50:22.337Z,101600.64
2023-05-05T05:52:52.153Z,101615.63
2023-05-05T05:55:22.000Z,101611.55
2023-05-05T05:57:52.299Z,101607.60
2023-05-05T06:00:22.375Z,101609.73
2023-05-05T06:02:53.952Z,101615.59
2023-05-05T06:05:25.163Z,101623.19
2023-05-05T06:07:55.552Z,101617.63
2023-05-05T06:10:28.525Z,101627.76
2023-05-05T06:12:59.980Z,101627.76
2023-05-05T06:15:30.066Z,101628.97
2023-05-05T06:18:00.599Z,101634.15
2023-05-05T06:20:30.548Z,101635.97
2023-05-05T06:23:00.548Z,101636.19
2023-05-05T06:25:30.998Z,101642.70
2023-05-05T06:28:00.861Z,101637.82
2023-05-05T06:30:30.828Z,101630.97
2023-05-05T06:33:00.746Z,101638.20
2023-05-05T06:35:30.539Z,101636.90
2023-05-05T06:38:00.423Z,101624.44
2023-05-05T06:40:30.093Z,101624.44
2023-05-05T06:42:59.642Z,101647.06
2023-05-05T06:45:31.200Z,101646.80
2023-05-05T06:48:01.011Z,101653.84
2023-05-05T06:50:30.956Z,101659.34
2023-05-05T06:53:01.267Z,101659.80
2023-05-05T06:55:31.529Z,101673.39
2023-05-05T06:58:01.353Z,101673.39
2023-05-05T07:00:31.658Z,101672.56
2023-05-05T07:03:01.809Z,101683.86
2023-05-05T07:05:31.711Z,101676.47
2023-05-05T07:08:01.847Z,101683.37
2023-05-05T07:10:33.061Z,101684.40
2023-05-05T07:13:02.868Z,101677.91
2023-05-05T07:15:32.679Z,101684.86
2023-05-05T07:18:02.523Z,101686.97
2023-05-05T07:20:32.148Z,101666.34
2023-05-05T07:23:01.701Z,101676.07
2023-05-05T07:25:31.811Z,101684.14
2023-05-05T07:28:01.693Z,101683.03
2023-05-05T07:30:31.826Z,101686.34
2023-05-05T07:33:01.766Z,101684.83
2023-05-05T07:35:31.662Z,101681.04
2023-05-05T07:38:01.460Z,101680.59
2023-05-05T07:40:31.307Z,101687.05
2023-05-05T07:43:01.320Z,101688.42
2023-05-05T07:45:31.400Z,101688.00
2023-05-05T07:48:01.281Z,101679.77
2023-05-05T07:50:30.819Z,101681.37
2023-05-05T07:53:10.762Z,101679.96
2023-05-05T07:55:32.072Z,101681.48
2023-05-05T07:58:03.651Z,101678.48
2023-05-05T08:00:33.228Z,101673.48
2023-05-05T08:03:03.054Z,101675.29
2023-05-05T08:05:32.964Z,101671.50
2023-05-05T08:08:03.657Z,101675.98
2023-05-05T08:10:33.155Z,101668.26
2023-05-05T08:13:03.130Z,101673.46
2023-05-05T08:15:32.944Z,101667.00
2023-05-05T08:18:02.853Z,101669.30
2023-05-05T08:20:32.504Z,101664.99
2023-05-05T08:23:02.310Z,101664.99
2023-05-05T08:25:31.853Z,101657.53
2023-05-05T08:28:01.505Z,101657.53
2023-05-05T08:30:31.809Z,101672.59
2023-05-05T08:33:01.735Z,101679.75
2023-05-05T08:35:31.980Z,101677.37
2023-05-05T08:38:01.549Z,101673.83
2023-05-05T08:40:37.558Z,101674.84
2023-05-05T08:43:07.610Z,101686.86
2023-05-05T08:45:39.867Z,101678.59
2023-05-05T08:48:10.333Z,101675.98
2023-05-05T08:50:41.009Z,101679.31
2023-05-05T08:53:13.280Z,101680.18
2023-05-05T08:55:53.238Z,101679.77
2023-05-05T08:58:25.538Z,101674.66
2023-05-05T09:00:57.432Z,101679.56
2023-05-05T09:03:28.541Z,101683.53
2023-05-05T09:05:58.752Z,101682.70
2023-05-05T09:08:30.183Z,101687.19
2023-05-05T09:11:01.840Z,101688.66
2023-05-05T09:13:32.061Z,101689.45
2023-05-05T09:16:01.853Z,101698.00
2023-05-05T09:18:31.686Z,101691.33
2023-05-05T09:21:02.038Z,101692.30
2023-05-05T09:23:31.826Z,101690.91
2023-05-05T09:26:08.122Z,101683.41
2023-05-05T09:28:38.206Z,101679.25
2023-05-05T09:31:17.085Z,101679.25
2023-05-05T09:33:47.748Z,101679.76
2023-05-05T09:36:17.633Z,101679.76
2023-05-05T09:38:50.179Z,101669.97
2023-05-05T09:41:23.003Z,101669.97
2023-05-05T09:43:53.200Z,101687.32
2023-05-05T09:46:23.463Z,101692.66
2023-05-05T09:48:53.311Z,101689.95
2023-05-05T09:51:32.490Z,101689.77
2023-05-05T09:54:02.476Z,101684.97
2023-05-05T09:56:41.353Z,101684.53
2023-05-05T09:59:12.163Z,101683.61
2023-05-05T10:01:43.678Z,101687.81
2023-05-05T10:04:29.962Z,101687.39
2023-05-05T10:07:00.188Z,101657.98
2023-05-05T10:09:32.084Z,101657.98
2023-05-05T10:12:02.457Z,101674.50
2023-05-05T10:14:34.836Z,101677.69
2023-05-05T10:17:04.975Z,101670.13
2023-05-05T10:19:37.003Z,101671.58
2023-05-05T10:22:11.433Z,101663.05
2023-05-05T10:24:50.117Z,101665.73
2023-05-05T10:27:24.563Z,101662.89
2023-05-05T10:29:57.164Z,101664.56
2023-05-05T10:32:57.467Z,101640.80
2023-05-05T10:35:28.680Z,101647.31
2023-05-05T10:38:00.989Z,101648.90
2023-05-05T10:40:32.209Z,101647.26
2023-05-05T10:43:02.241Z,101649.97
2023-05-05T10:45:32.596Z,101644.63
2023-05-05T10:48:05.591Z,101651.47
2023-05-05T10:50:44.052Z,101652.20
2023-05-05T10:53:28.750Z,101649.70
2023-05-05T10:56:13.419Z,101649.70
2023-05-05T10:58:55.600Z,101653.94
2023-05-05T11:01:17.779Z,101653.83
2023-05-05T11:03:47.599Z,101656.61
2023-05-05T11:06:17.434Z,101640.06
2023-05-05T11:08:47.307Z,101640.06
2023-05-05T11:11:17.383Z,101658.33
2023-05-05T11:13:47.453Z,101649.19
2023-05-05T11:16:46.883Z,101657.67
2023-05-05T11:19:45.580Z,101661.34
2023-05-05T11:22:16.612Z,101721.77
2023-05-05T11:24:47.173Z,101736.78
2023-05-05T11:27:17.020Z,101749.05
2023-05-05T11:30:06.979Z,101736.52
2023-05-05T11:32:36.935Z,101736.52
2023-05-05T11:35:08.691Z,101749.80
2023-05-05T11:37:39.284Z,101739.97
2023-05-05T11:40:23.550Z,101740.58
2023-05-05T11:42:56.130Z,101760.45
2023-05-05T11:45:26.401Z,101761.11
2023-05-05T11:48:16.197Z,101739.55
2023-05-05T11:50:46.218Z,101724.48
2023-05-05T11:53:16.219Z,101722.89
2023-05-05T11:55:46.028Z,101722.89
2023-05-05T11:58:22.343Z,101727.87
2023-05-05T12:00:52.312Z,101732.25
2023-05-05T12:03:22.561Z,101726.91
2023-05-05T12:05:56.823Z,101737.17
2023-05-05T12:08:27.016Z,101721.09
2023-05-05T12:11:11.552Z,101721.09
2023-05-05T12:13:41.701Z,101737.63
2023-05-05T12:16:16.225Z,101736.20
2023-05-05T12:18:46.030Z,101748.14
2023-05-05T12:21:19.417Z,101753.73
2023-05-05T12:23:49.581Z,101747.14
2023-05-05T12:26:32.638Z,101747.14
2023-05-05T12:29:03.110Z,101739.95
2023-05-05T12:31:40.133Z,101739.95
2023-05-05T12:34:11.873Z,101743.73
2023-05-05T12:36:42.269Z,101741.55
2023-05-05T12:39:12.264Z,101739.61
2023-05-05T12:41:42.033Z,101745.09
2023-05-05T12:44:12.119Z,101752.30
2023-05-05T12:46:48.699Z,101740.75
2023-05-05T12:49:18.374Z,101745.83
2023-05-05T12:51:55.476Z,101738.63
2023-05-05T12:54:27.333Z,101727.65
2023-05-05T12:56:58.440Z,101727.65
2023-05-05T12:59:30.729Z,101728.30
2023-05-05T13:02:03.940Z,101728.30
2023-05-05T13:04:33.828Z,101738.13
2023-05-05T13:07:19.052Z,101743.16
2023-05-05T13:09:51.035Z,101740.78
2023-05-05T13:12:22.182Z,101741.12
2023-05-05T13:14:52.639Z,101739.20
2023-05-05T13:17:23.022Z,101743.06
2023-05-05T13:19:52.980Z,101745.46
2023-05-05T13:22:22.787Z,101749.06
2023-05-05T13:24:53.083Z,101753.95
2023-05-05T13:27:23.552Z,101756.73
2023-05-05T13:29:53.352Z,101741.98
2023-05-05T13:32:22.887Z,101741.98
2023-05-05T13:34:53.017Z,101754.88
2023-05-05T13:37:22.862Z,101763.44
2023-05-05T13:39:52.453Z,101758.83
2023-05-05T13:42:22.277Z,101758.80
2023-05-05T13:44:52.373Z,101758.69
2023-05-05T13:47:22.436Z,101758.69
2023-05-05T13:49:52.694Z,101754.64
2023-05-05T13:52:22.457Z,101727.70
2023-05-05T13:54:53.060Z,101750.55
2023-05-05T13:57:23.601Z,101752.02
2023-05-05T13:59:53.397Z,101760.48
2023-05-05T14:02:22.984Z,101764.38
2023-05-05T14:04:52.806Z,101762.96
2023-05-05T14:07:22.604Z,101759.27
2023-05-05T14:09:52.385Z,101761.66
2023-05-05T14:12:23.545Z,101751.85
2023-05-05T14:14:53.594Z,101745.28
2023-05-05T14:17:23.417Z,101745.28
2023-05-05T14:19:53.255Z,101739.02
2023-05-05T14:22:23.067Z,101741.03
2023-05-05T14:24:52.867Z,101737.98
2023-05-05T14:27:22.672Z,101730.54
2023-05-05T14:29:52.460Z,101736.19
2023-05-05T14:32:22.936Z,101731.76
2023-05-05T14:34:52.842Z,101724.87
2023-05-05T14:37:22.702Z,101709.14
2023-05-05T14:39:52.865Z,101709.14
2023-05-05T14:42:22.389Z,101706.06
2023-05-05T14:44:52.177Z,101704.48
2023-05-05T14:47:21.984Z,101704.69
2023-05-05T14:49:51.857Z,101704.69
2023-05-05T14:52:21.701Z,101704.80
2023-05-05T14:54:51.795Z,101705.03
2023-05-05T14:57:21.969Z,101701.43
2023-05-05T14:59:53.062Z,101708.30
2023-05-05T15:02:23.224Z,101706.95
2023-05-05T15:04:53.084Z,101704.38
2023-05-05T15:07:24.638Z,101699.27
2023-05-05T15:09:54.890Z,101692.02
2023-05-05T15:12:25.943Z,101688.44
2023-05-05T15:14:55.491Z,101687.73
2023-05-05T15:17:26.029Z,101683.91
2023-05-05T15:19:57.363Z,101685.59
2023-05-05T15:22:26.870Z,101686.78
2023-05-05T15:24:56.756Z,101697.61
2023-05-05T15:27:26.896Z,101693.64
2023-05-05T15:29:56.781Z,101688.86
2023-05-05T15:32:26.644Z,101689.86
2023-05-05T15:34:56.656Z,101689.08
2023-05-05T15:37:28.300Z,101685.84
2023-05-05T15:39:58.095Z,101674.14
2023-05-05T15:42:27.868Z,101681.67
2023-05-05T15:44:57.660Z,101680.14
2023-05-05T15:47:27.574Z,101674.77
2023-05-05T15:49:57.398Z,101678.73
2023-05-05T15:52:27.175Z,101674.66
2023-05-05T15:54:56.963Z,101683.08
2023-05-05T15:57:26.966Z,101676.88
2023-05-05T15:59:56.849Z,101671.53
2023-05-05T16:02:26.734Z,101665.80
2023-05-05T16:04:56.584Z,101667.18
2023-05-05T16:07:26.924Z,101666.88
2023-05-05T16:09:56.899Z,101662.36
2023-05-05T16:12:26.690Z,101664.63
2023-05-05T16:14:56.489Z,101663.22
2023-05-05T16:17:26.389Z,101665.42
2023-05-05T16:19:56.517Z,101664.67
2023-05-05T16:22:26.152Z,101664.73
2023-05-05T16:24:55.966Z,101659.56
2023-05-05T16:27:26.422Z,101646.26
2023-05-05T16:29:58.393Z,101651.22
2023-05-05T16:32:28.010Z,101653.08
2023-05-05T16:34:57.864Z,101646.20
2023-05-05T16:37:27.683Z,101649.22
2023-05-05T16:39:57.464Z,101644.73
2023-05-05T16:42:27.256Z,101648.00
2023-05-05T16:44:57.060Z,101653.57
2023-05-05T16:47:27.250Z,101649.81
2023-05-05T16:49:57.110Z,101653.47
2023-05-05T16:52:26.909Z,101654.05
2023-05-05T16:54:57.171Z,101647.97
2023-05-05T16:57:27.690Z,101653.33
2023-05-05T16:59:57.485Z,101645.78
2023-05-05T17:02:27.041Z,101648.84
2023-05-05T17:04:56.876Z,101650.88
2023-05-05T17:07:26.460Z,101658.14
2023-05-05T17:09:56.402Z,101655.48
2023-05-05T17:12:26.176Z,101637.45
2023-05-05T17:14:56.016Z,101637.45
2023-05-05T17:17:26.063Z,101655.01
2023-05-05T17:19:55.885Z,101652.58
2023-05-05T17:22:25.722Z,101650.51
2023-05-05T17:24:55.527Z,101655.16
2023-05-05T17:27:25.416Z,101653.94
2023-05-05T17:29:55.303Z,101659.91
2023-05-05T17:32:25.194Z,101653.80
2023-05-05T17:34:56.258Z,101653.80
2023-05-05T17:37:26.123Z,101650.99
2023-05-05T17:39:55.968Z,101646.66
2023-05-05T17:42:27.029Z,101648.25
2023-05-05T17:44:56.818Z,101652.67
2023-05-05T17:47:26.893Z,101640.03
2023-05-05T17:49:57.859Z,101649.18
2023-05-05T17:52:27.657Z,101659.52
2023-05-05T17:54:57.562Z,101651.86
2023-05-05T17:57:27.383Z,101647.73
2023-05-05T17:59:57.169Z,101655.19
2023-05-05T18:02:27.423Z,101661.63
2023-05-05T18:04:57.511Z,101668.67
2023-05-05T18:07:28.354Z,101649.20
2023-05-05T18:09:58.492Z,101669.66
2023-05-05T18:12:28.289Z,101651.06
2023-05-05T18:14:58.057Z,101668.31
2023-05-05T18:17:27.853Z,101667.83
2023-05-05T18:19:57.968Z,101664.61
2023-05-05T18:22:27.872Z,101664.61
2023-05-05T18:24:59.546Z,101673.09
2023-05-05T18:27:31.642Z,101673.09
2023-05-05T18:30:02.083Z,101668.33
2023-05-05T18:32:32.225Z,101675.31
2023-05-05T18:35:02.339Z,101663.13
2023-05-05T18:37:32.441Z,101663.13
2023-05-05T18:40:03.159Z,101683.94
2023-05-05T18:42:33.254Z,101691.34
2023-05-05T18:45:03.335Z,101688.89
2023-05-05T18:47:33.799Z,101680.14
2023-05-05T18:50:04.180Z,101680.14
2023-05-05T18:52:34.707Z,101688.45
2023-05-05T18:55:06.100Z,101684.02
2023-05-05T18:57:35.916Z,101684.02
2023-05-05T19:00:08.487Z,101699.58
2023-05-05T19:02:38.681Z,101712.41
2023-05-05T19:05:09.143Z,101712.41
2023-05-05T19:07:39.055Z,101705.64
2023-05-05T19:10:09.812Z,101710.42
2023-05-05T19:12:39.387Z,101706.90
2023-05-05T19:15:09.586Z,101709.09
2023-05-05T19:17:39.457Z,101715.47
2023-05-05T19:20:09.624Z,101719.93
2023-05-05T19:22:39.432Z,101723.73
2023-05-05T19:25:09.662Z,101724.39
2023-05-05T19:27:39.671Z,101724.39
2023-05-05T19:30:10.295Z,101723.22
2023-05-05T19:32:39.867Z,101725.09
2023-05-05T19:35:10.479Z,101732.14
2023-05-05T19:37:40.660Z,101734.16
2023-05-05T19:40:10.959Z,101734.23
2023-05-05T19:42:41.058Z,101742.69
2023-05-05T19:45:10.699Z,101743.86
2023-05-05T19:47:40.599Z,101742.33
2023-05-05T19:50:11.535Z,101735.66
2023-05-05T19:52:41.792Z,101735.91
2023-05-05T19:55:12.831Z,101730.94
2023-05-05T19:57:42.412Z,101731.23
2023-05-05T20:00:12.502Z,101735.25
2023-05-05T20:02:44.572Z,101731.32
2023-05-05T20:05:16.320Z,101741.66
2023-05-05T20:07:46.997Z,101742.84
2023-05-05T20:10:19.422Z,101743.73
2023-05-05T20:12:50.121Z,101739.22
2023-05-05T20:15:21.682Z,101740.80
2023-05-05T20:17:51.553Z,101740.19
2023-05-05T20:20:23.946Z,101743.68
2023-05-05T20:22:53.458Z,101745.05
2023-05-05T20:25:23.273Z,101747.68
2023-05-05T20:27:53.076Z,101742.30
2023-05-05T20:30:22.929Z,101741.66
2023-05-05T20:32:53.457Z,101741.78
2023-05-05T20:35:23.147Z,101737.74
2023-05-05T20:37:52.925Z,101737.22
2023-05-05T20:40:22.882Z,101741.47
2023-05-05T20:42:52.693Z,101747.27
2023-05-05T20:45:22.289Z,101744.95
2023-05-05T20:47:52.470Z,101735.13
2023-05-05T20:50:22.426Z,101740.95
2023-05-05T20:52:52.351Z,101733.63
2023-05-05T20:55:22.206Z,101736.59
2023-05-05T20:57:52.005Z,101741.13
2023-05-05T21:00:21.902Z,101728.89
2023-05-05T21:02:51.769Z,101734.49
2023-05-05T21:05:22.197Z,101727.61
2023-05-05T21:07:53.563Z,101721.25
2023-05-05T21:10:23.478Z,101720.10
2023-05-05T21:12:53.410Z,101731.72
2023-05-05T21:15:23.027Z,101731.09
2023-05-05T21:17:52.938Z,101733.84
2023-05-05T21:20:23.125Z,101739.97
2023-05-05T21:22:52.985Z,101734.97
2023-05-05T21:25:23.035Z,101728.87
2023-05-05T21:27:52.522Z,101727.69
2023-05-05T21:30:24.556Z,101726.52
2023-05-05T21:32:54.406Z,101724.44
2023-05-05T21:35:24.245Z,101727.58
2023-05-05T21:37:54.050Z,101724.02
2023-05-05T21:40:23.737Z,101728.64
2023-05-05T21:42:53.302Z,101733.25
2023-05-05T21:45:23.234Z,101732.33
2023-05-05T21:47:53.110Z,101722.88
2023-05-05T21:50:23.085Z,101726.28
2023-05-05T21:52:52.866Z,101735.49
2023-05-05T21:55:22.361Z,101733.06
2023-05-05T21:57:52.156Z,101725.16
2023-05-05T22:00:22.231Z,101728.36
2023-05-05T22:02:52.189Z,101729.42
2023-05-05T22:05:22.206Z,101723.90
2023-05-05T22:07:52.030Z,101728.08
2023-05-05T22:10:21.644Z,101723.83
2023-05-05T22:12:51.913Z,101716.55
2023-05-05T22:15:25.351Z,101720.03
2023-05-05T22:17:54.516Z,101722.06
2023-05-05T22:20:24.465Z,101727.55
2023-05-05T22:22:54.266Z,101719.36
2023-05-05T22:25:24.309Z,101720.80
2023-05-05T22:27:54.093Z,101723.54
2023-05-05T22:30:25.620Z,101723.50
2023-05-05T22:32:55.439Z,101724.13
2023-05-05T22:35:25.245Z,101725.51
2023-05-05T22:37:55.032Z,101729.56
2023-05-05T22:40:24.929Z,101725.30
2023-05-05T22:42:55.081Z,101725.30
2023-05-05T22:45:24.754Z,101721.47
2023-05-05T22:47:55.439Z,101708.47
2023-05-05T22:50:25.646Z,101721.05
2023-05-05T22:52:55.531Z,101712.72
2023-05-05T22:55:25.172Z,101721.83
2023-05-05T22:57:55.352Z,101717.95
2023-05-05T23:00:25.334Z,101710.61
2023-05-05T23:02:55.427Z,101713.91
2023-05-05T23:05:25.369Z,101707.63
2023-05-05T23:07:55.192Z,101707.63
2023-05-05T23:10:25.286Z,101707.77
2023-05-05T23:12:55.141Z,101705.76
2023-05-05T23:15:25.089Z,101709.41
2023-05-05T23:17:54.923Z,101708.75
2023-05-05T23:22:52.809Z,101703.97
2023-05-05T23:25:22.324Z,101698.06
2023-05-05T23:27:52.124Z,101692.47
2023-05-05T23:30:21.765Z,101692.47
2023-05-05T23:32:51.604Z,101707.66
2023-05-05T23:35:21.731Z,101712.59
2023-05-05T23:37:51.513Z,101710.48
2023-05-05T23:40:22.547Z,101706.88
2023-05-05T23:42:52.344Z,101713.55
2023-05-05T23:45:21.846Z,101708.11
2023-05-05T23:47:52.339Z,101706.84
2023-05-05T23:50:22.621Z,101707.38
2023-05-05T23:52:52.542Z,101707.92
2023-05-05T23:55:22.301Z,101709.23
2023-05-05T23:57:53.024Z,101711.52
